• Join FlightAware (Why Join?)
  • Login
  • US Flag 
07:55PM EDT


 

Airport Tracker/Info


-or-


 

Live Flight TrackerFlight Track Log ✈ N87LP ✈ 31-Jul-2014 ✈ KTLH - KVDF

Flight Track Log - Related Links

Times and Time Zones

All times are in EDT time to prevent confusion due to time zone crossing. See the N87LP flight status page for this flight to view local times or setup timezone preferences in your user account.

Time Position Orientation Groundspeed Altitude Reporting Facility
EDT Latitude Longitude Course Direction KTS MPH feet Rate Location/Type
01:31PM 30.2152 -84.1937 144° Southeast  Level Estimated
01:32PM 30.1794 -84.1615 142° Southeast  Level FlightAware Approximate
01:33PM 30.1430 -84.1302 144° Southeast  Level Estimated
01:34PM 30.1063 -84.0995 144° Southeast  Level FlightAware Approximate
01:35PM 30.0695 -84.0689 144° Southeast  Level FlightAware Approximate
01:36PM 30.0327 -84.0383 144° Southeast  Level FlightAware Approximate
01:37PM 29.9959 -84.0077 144° Southeast  Level FlightAware Approximate
01:37PM 30.1003 -84.0833 154° Southeast 164 189 7,000  Level Jacksonville Center
01:38PM 29.9596 -83.9764 152° Southeast  Level Estimated
01:38PM 30.0650 -84.0542 144° Southeast 164 189 7,000  Level Jacksonville Center
01:39PM 29.9194 -83.9521 152° Southeast  Level FlightAware Approximate
01:39PM 30.0256 -84.0322 154° Southeast 182 209 7,000  Level Jacksonville Center
01:40PM 29.8793 -83.9278 152° Southeast  Level FlightAware Approximate
01:40PM 29.9881 -84.0053 148° Southeast 187 215 7,000  Level Jacksonville Center
01:41PM 29.8431 -83.8964 139° Southeast  Level Estimated
01:41PM 29.9486 -83.9761 147° Southeast 176 203 7,000  Level Jacksonville Center
01:42PM 29.8069 -83.8649 154° Southeast  Level Estimated
01:42PM 29.9092 -83.9517 152° Southeast 171 197 7,000  Level Jacksonville Center
01:43PM 29.8697 -83.9272 152° Southeast 171 197 7,000 -60 Level Jacksonville Center
01:44PM 29.8283 -83.9006 151° Southeast 171 197 6,900  Descending Jacksonville Center
01:45PM 29.7889 -83.8761 152° Southeast 171 197 7,000  Climbing Jacksonville Center
01:46PM 29.7494 -83.8494 150° Southeast 166 191 7,000  Level Jacksonville Center
01:47PM 29.7097 -83.8253 152° Southeast 166 191 7,000  Level Jacksonville Center
01:48PM 29.6703 -83.7986 150° Southeast 166 191 7,000  Level Jacksonville Center
01:49PM 29.6308 -83.7742 152° Southeast 166 191 7,000  Level Jacksonville Center
01:50PM 29.5956 -83.7500 149° Southeast 166 191 7,000  Level Jacksonville Center
01:51PM 29.5561 -83.7258 152° Southeast 166 191 7,000  Level Jacksonville Center
01:52PM 29.5186 -83.7017 151° Southeast 166 191 7,000  Level Jacksonville Center
01:53PM 29.4792 -83.6750 150° Southeast 166 191 7,000  Level Jacksonville Center
01:54PM 29.4375 -83.6486 151° Southeast 166 191 7,000  Level Jacksonville Center
01:55PM 29.4000 -83.6219 148° Southeast 166 191 7,000  Level Jacksonville Center
01:56PM 29.3522 -83.5978 156° South 166 191 7,000  Level Jacksonville Center
01:57PM 29.3169 -83.5714 147° Southeast 166 191 7,000  Level Jacksonville Center
01:58PM 29.2775 -83.5450 150° Southeast 166 191 7,000  Level Jacksonville Center
01:59PM 29.2358 -83.5208 153° Southeast 166 191 7,000  Level Jacksonville Center
02:00PM 29.1961 -83.4944 150° Southeast 166 191 7,000  Level Jacksonville Center
02:01PM 29.1567 -83.4681 150° Southeast 166 191 7,000  Level Jacksonville Center
02:02PM 29.1108 -83.4417 153° Southeast 166 191 7,000  Level Jacksonville Center
02:03PM 29.0756 -83.4153 147° Southeast 180 207 7,000  Level Jacksonville Center
02:04PM 29.0358 -83.3914 152° Southeast 180 207 7,000  Level Jacksonville Center
02:05PM 28.9900 -83.3625 151° Southeast 174 200 7,000  Level Jacksonville Center
02:06PM 28.9567 -83.3411 151° Southeast 169 194 7,000 -60 Level Jacksonville Center
02:07PM 28.9108 -83.3147 153° Southeast 169 194 6,900  Descending Jacksonville Center
02:08PM 28.8756 -83.2886 147° Southeast 169 194 7,000  Climbing Jacksonville Center
02:09PM 28.8339 -83.2647 153° Southeast 169 194 7,000 -60 Level Jacksonville Center
02:10PM 28.7944 -83.2408 152° Southeast 169 194 6,900 -60 Descending Jacksonville Center
02:11PM 28.7506 -83.2147 152° Southeast 169 194 6,900  Level Jacksonville Center
02:12PM 28.7131 -83.1886 149° Southeast 169 194 7,000  Climbing Jacksonville Center
02:13PM 28.6756 -83.1647 151° Southeast 164 189 6,900 -60 Descending Jacksonville Center
02:14PM 28.6339 -83.1386 151° Southeast 164 189 6,900  Level Jacksonville Center
02:15PM 28.6000 -83.1167 150° Southeast 164 189 6,900  Level Tampa TRACON
02:16PM 28.5667 -83.1000 156° South 164 189 6,900  Level Tampa TRACON
02:17PM 28.5333 -83.0667 139° Southeast 166 191 7,000  Climbing Tampa TRACON
02:18PM 28.4833 -83.0500 164° South 164 189 6,900 -60 Descending Tampa TRACON
02:19PM 28.4500 -83.0167 139° Southeast 165 190 6,900  Level Tampa TRACON
02:20PM 28.4167 -83.0000 156° South 165 190 6,900  Level Tampa TRACON
02:21PM 28.3667 -82.9667 150° Southeast 163 188 6,900  Level Tampa TRACON
02:21PM 28.3472 -82.9572 157° South 163 188 6,900  Level Miami Center
02:22PM 28.3083 -82.9314 150° Southeast 163 188 6,900  Level Miami Center
02:23PM 28.2672 -82.9064 152° Southeast 163 188 6,900  Level Miami Center
02:24PM 28.2289 -82.8819 151° Southeast 163 188 6,900 -300 Level Miami Center
02:26PM 28.1853 -82.8467 145° Southeast 162 186 6,300 -540 Descending Miami Center
02:27PM 28.1542 -82.8103 134° Southeast 162 186 5,800 -540 Descending Miami Center
02:28PM 28.1192 -82.7764 140° Southeast 162 186 5,300 -660 Descending Miami Center
02:29PM 28.0833 -82.7333 133° Southeast 164 189 4,400 -600 Descending Tampa TRACON
02:30PM 28.0500 -82.7000 139° Southeast 159 183 4,100 -360 Descending Tampa TRACON
02:31PM 28.0167 -82.6833 156° South 146 168 3,800 -540 Descending Tampa TRACON
02:32PM 27.9833 -82.6333 127° Southeast 154 177 3,100 -480 Descending Tampa TRACON
02:33PM 27.9667 -82.5833 111° Southeast 153 176 2,800 -120 Descending Tampa TRACON
02:34PM 27.9667 -82.5500 90° East 136 157 2,900  Climbing Tampa TRACON
02:35PM 27.9667 -82.5000 90° East 126 145 2,900  Level Tampa TRACON
02:36PM 27.9667 -82.4667 90° East 129 148 3,000 60 Climbing Tampa TRACON